createdAt,value
2023-04-29T00:00:32.354Z,101056.41
2023-04-29T00:01:37.545Z,101067.59
2023-04-29T00:02:42.149Z,101060.19
2023-04-29T00:03:47.860Z,101062.94
2023-04-29T00:04:51.043Z,101057.13
2023-04-29T00:05:55.280Z,101050.97
2023-04-29T00:06:58.170Z,101056.78
2023-04-29T00:08:02.220Z,101056.94
2023-04-29T00:09:05.051Z,101044.44
2023-04-29T00:10:09.602Z,101047.41
2023-04-29T00:11:12.318Z,101050.34
2023-04-29T00:12:16.727Z,101046.84
2023-04-29T00:13:19.341Z,101046.16
2023-04-29T00:14:22.938Z,101046.91
2023-04-29T00:15:25.883Z,101035.50
2023-04-29T00:16:29.844Z,101031.03
2023-04-29T00:17:32.760Z,101025.56
2023-04-29T00:18:37.240Z,101024.22
2023-04-29T00:19:41.760Z,101038.19
2023-04-29T00:20:46.538Z,101021.88
2023-04-29T00:21:49.865Z,101023.81
2023-04-29T00:22:54.073Z,101010.84
2023-04-29T00:23:57.357Z,101017.25
2023-04-29T00:25:01.047Z,101017.78
2023-04-29T00:26:03.779Z,101013.47
2023-04-29T00:27:07.686Z,101013.06
2023-04-29T00:28:10.783Z,101010.41
2023-04-29T00:29:14.742Z,101004.88
2023-04-29T00:30:17.529Z,101006.06
2023-04-29T00:31:22.307Z,101007.91
2023-04-29T00:32:25.473Z,100997.81
2023-04-29T00:33:29.316Z,100996.63
2023-04-29T00:34:31.924Z,100999.06
2023-04-29T00:35:36.841Z,100992.38
2023-04-29T00:36:39.715Z,100993.16
2023-04-29T00:37:44.031Z,100992.16
2023-04-29T00:38:51.873Z,100988.19
2023-04-29T00:39:55.501Z,100991.41
2023-04-29T00:40:58.243Z,100991.22
2023-04-29T00:42:04.502Z,100989.31
2023-04-29T00:43:07.936Z,100983.38
2023-04-29T00:44:12.742Z,100984.44
2023-04-29T00:45:18.055Z,100978.22
2023-04-29T00:46:23.053Z,100983.75
2023-04-29T00:47:27.641Z,100977.66
2023-04-29T00:48:31.359Z,100981.31
2023-04-29T00:49:34.214Z,100971.75
2023-04-29T00:50:39.306Z,100969.53
2023-04-29T00:51:42.527Z,100966.09
2023-04-29T00:52:46.801Z,100961.56
2023-04-29T00:53:50.231Z,100964.50
2023-04-29T00:54:55.108Z,100959.06
2023-04-29T00:55:58.717Z,100960.88
2023-04-29T00:57:04.276Z,100965.84
2023-04-29T00:58:10.324Z,100959.97
2023-04-29T00:59:16.064Z,100955.19
2023-04-29T01:00:19.772Z,100957.53
2023-04-29T01:01:24.890Z,100955.84
2023-04-29T01:02:28.910Z,100946.72
2023-04-29T01:03:33.237Z,100948.66
2023-04-29T01:04:36.109Z,100963.63
2023-04-29T01:05:42.067Z,100953.91
2023-04-29T01:06:57.755Z,100956.00
2023-04-29T01:08:17.899Z,100956.09
2023-04-29T01:09:34.258Z,100943.44
2023-04-29T01:10:46.194Z,100953.25
2023-04-29T01:12:00.382Z,100941.72
2023-04-29T01:13:11.305Z,100942.69
2023-04-29T01:14:14.910Z,100945.72
2023-04-29T01:15:24.210Z,100946.50
2023-04-29T01:16:35.248Z,100945.91
2023-04-29T01:17:43.399Z,100941.38
2023-04-29T01:18:50.606Z,100939.16
2023-04-29T01:19:58.032Z,100936.69
2023-04-29T01:21:03.424Z,100943.59
2023-04-29T01:22:07.733Z,100940.91
2023-04-29T01:23:11.290Z,100932.94
2023-04-29T01:24:16.513Z,100946.56
2023-04-29T01:25:19.127Z,100943.59
2023-04-29T01:26:23.118Z,100944.06
2023-04-29T01:27:32.294Z,100931.06
2023-04-29T01:28:48.626Z,100932.81
2023-04-29T01:29:59.856Z,100930.94
2023-04-29T01:31:10.488Z,100922.97
2023-04-29T01:32:18.640Z,100923.41
2023-04-29T01:33:31.258Z,100921.88
2023-04-29T01:34:40.883Z,100917.00
2023-04-29T01:35:54.936Z,100914.84
2023-04-29T01:37:09.169Z,100919.22
2023-04-29T01:38:34.465Z,100913.56
2023-04-29T01:39:47.113Z,100910.59
2023-04-29T01:40:59.414Z,100912.84
2023-04-29T01:42:11.750Z,100900.78
2023-04-29T01:43:16.159Z,100901.75
2023-04-29T01:44:25.903Z,100892.69
2023-04-29T01:45:30.269Z,100893.28
2023-04-29T01:46:34.509Z,100902.84
2023-04-29T01:47:39.611Z,100900.97
2023-04-29T01:48:43.855Z,100903.16
2023-04-29T01:49:47.459Z,100897.22
2023-04-29T01:50:52.565Z,100895.81
2023-04-29T01:51:56.768Z,100904.56
2023-04-29T01:53:01.906Z,100905.88
2023-04-29T01:54:05.450Z,100902.09
2023-04-29T01:55:12.214Z,100905.25
2023-04-29T01:56:15.172Z,100899.91
2023-04-29T01:57:21.256Z,100906.31
2023-04-29T01:58:24.113Z,100901.16
2023-04-29T01:59:30.224Z,100893.66
2023-04-29T02:00:34.281Z,100895.53
2023-04-29T02:01:38.604Z,100891.16
2023-04-29T02:02:41.260Z,100891.78
2023-04-29T02:03:46.087Z,100888.25
2023-04-29T02:04:50.943Z,100888.25
2023-04-29T02:05:55.183Z,100889.59
2023-04-29T02:06:57.896Z,100888.97
2023-04-29T02:08:02.685Z,100887.56
2023-04-29T02:09:05.282Z,100886.66
2023-04-29T02:10:12.153Z,100877.03
2023-04-29T02:11:15.693Z,100872.06
2023-04-29T02:12:18.622Z,100886.47
2023-04-29T02:13:22.359Z,100885.97
2023-04-29T02:14:24.838Z,100881.59
2023-04-29T02:15:28.874Z,100878.16
2023-04-29T02:16:32.571Z,100879.13
2023-04-29T02:17:35.605Z,100877.75
2023-04-29T02:18:40.983Z,100871.94
2023-04-29T02:19:44.892Z,100874.31
2023-04-29T02:20:50.264Z,100869.75
2023-04-29T02:21:53.248Z,100872.28
2023-04-29T02:22:57.289Z,100873.22
2023-04-29T02:24:00.697Z,100862.72
2023-04-29T02:25:05.575Z,100865.22
2023-04-29T02:26:11.206Z,100861.00
2023-04-29T02:27:14.786Z,100855.81
2023-04-29T02:28:18.023Z,100858.97
2023-04-29T02:29:22.582Z,100858.16
2023-04-29T02:30:25.354Z,100852.31
2023-04-29T02:31:29.429Z,100848.94
2023-04-29T02:32:32.395Z,100848.31
2023-04-29T02:33:36.493Z,100843.00
2023-04-29T02:34:39.098Z,100844.56
2023-04-29T02:35:42.953Z,100842.06
2023-04-29T02:36:45.573Z,100843.59
2023-04-29T02:37:49.731Z,100846.44
2023-04-29T02:38:55.427Z,100847.25
2023-04-29T02:39:59.105Z,100842.84
2023-04-29T02:41:02.038Z,100835.78
2023-04-29T02:42:07.308Z,100842.19
2023-04-29T02:43:10.349Z,100843.94
2023-04-29T02:44:14.334Z,100845.84
2023-04-29T02:45:17.636Z,100842.25
2023-04-29T02:46:21.398Z,100851.53
2023-04-29T02:47:24.188Z,100851.91
2023-04-29T02:48:27.785Z,100843.75
2023-04-29T02:49:30.654Z,100847.31
2023-04-29T02:50:34.420Z,100853.34
2023-04-29T02:51:37.233Z,100844.97
2023-04-29T02:52:42.007Z,100845.50
2023-04-29T02:53:45.207Z,100850.59
2023-04-29T02:54:49.118Z,100846.97
2023-04-29T02:55:51.690Z,100846.41
2023-04-29T02:56:55.228Z,100846.09
2023-04-29T02:57:58.995Z,100841.09
2023-04-29T02:59:02.669Z,100836.25
2023-04-29T03:00:06.239Z,100844.75
2023-04-29T03:01:10.068Z,100849.00
2023-04-29T03:02:13.008Z,100847.66
2023-04-29T03:03:17.695Z,100848.31
2023-04-29T03:04:21.999Z,100851.53
2023-04-29T03:05:26.557Z,100854.09
2023-04-29T03:06:29.182Z,100856.84
2023-04-29T03:07:33.030Z,100860.28
2023-04-29T03:08:36.196Z,100855.78
2023-04-29T03:09:40.256Z,100858.84
2023-04-29T03:10:43.414Z,100863.75
2023-04-29T03:11:47.230Z,100859.41
2023-04-29T03:12:50.006Z,100868.97
2023-04-29T03:13:55.759Z,100863.13
2023-04-29T03:14:58.863Z,100864.53
2023-04-29T03:16:02.585Z,100863.56
2023-04-29T03:17:05.722Z,100873.47
2023-04-29T03:18:10.261Z,100866.22
2023-04-29T03:19:12.985Z,100871.22
2023-04-29T03:20:17.449Z,100861.97
2023-04-29T03:21:20.467Z,100868.16
2023-04-29T03:22:25.091Z,100868.69
2023-04-29T03:23:28.164Z,100860.81
2023-04-29T03:24:32.203Z,100863.56
2023-04-29T03:25:35.017Z,100859.22
2023-04-29T03:26:39.964Z,100859.31
2023-04-29T03:27:43.400Z,100856.38
2023-04-29T03:28:47.558Z,100857.66
2023-04-29T03:29:52.322Z,100855.59
2023-04-29T03:30:57.002Z,100863.97
2023-04-29T03:32:00.375Z,100866.81
2023-04-29T03:33:04.432Z,100873.44
2023-04-29T03:34:07.150Z,100875.59
2023-04-29T03:35:14.124Z,100879.34
2023-04-29T03:36:19.318Z,100889.63
2023-04-29T03:37:22.470Z,100892.03
2023-04-29T03:38:26.246Z,100891.53
2023-04-29T03:39:32.544Z,100889.88
2023-04-29T03:40:36.074Z,100897.56
2023-04-29T03:41:38.835Z,100899.03
2023-04-29T03:42:42.744Z,100897.78
2023-04-29T03:43:45.767Z,100906.19
2023-04-29T03:44:49.620Z,100906.66
2023-04-29T03:45:53.722Z,100920.19
2023-04-29T03:46:57.291Z,100921.03
2023-04-29T03:48:00.219Z,100917.69
2023-04-29T03:49:04.120Z,100922.72
2023-04-29T03:50:09.342Z,100927.69
2023-04-29T03:51:13.723Z,100930.00
2023-04-29T03:52:17.262Z,100932.78
2023-04-29T03:53:22.073Z,100934.84
2023-04-29T03:54:24.786Z,100932.19
2023-04-29T03:55:28.845Z,100929.91
2023-04-29T03:56:31.965Z,100935.06
2023-04-29T03:57:36.227Z,100940.25
2023-04-29T03:58:39.458Z,100939.09
2023-04-29T03:59:43.260Z,100943.28
2023-04-29T04:00:46.185Z,100952.53
2023-04-29T04:01:51.709Z,100948.50
2023-04-29T04:02:54.596Z,100954.38
2023-04-29T04:03:58.543Z,100955.22
2023-04-29T04:05:01.481Z,100951.09
2023-04-29T04:06:05.407Z,100957.81
2023-04-29T04:07:08.443Z,100954.47
2023-04-29T04:08:12.600Z,100957.34
2023-04-29T04:09:15.675Z,100955.19
2023-04-29T04:10:20.031Z,100954.59
2023-04-29T04:11:22.616Z,100958.25
2023-04-29T04:12:26.254Z,100956.66
2023-04-29T04:13:29.161Z,100966.34
2023-04-29T04:14:33.266Z,100963.97
2023-04-29T04:15:36.525Z,100961.06
2023-04-29T04:16:40.676Z,100970.53
2023-04-29T04:17:44.980Z,100969.00
2023-04-29T04:18:48.830Z,100962.34
2023-04-29T04:19:52.069Z,100961.22
2023-04-29T04:20:56.220Z,100958.00
2023-04-29T04:21:59.021Z,100958.84
2023-04-29T04:23:02.782Z,100946.19
2023-04-29T04:24:07.326Z,100950.22
2023-04-29T04:25:11.593Z,100959.63
2023-04-29T04:26:15.528Z,100944.28
2023-04-29T04:27:18.299Z,100939.97
2023-04-29T04:28:21.952Z,100946.84
2023-04-29T04:29:25.281Z,100953.25
2023-04-29T04:30:29.235Z,100948.31
2023-04-29T04:31:32.109Z,100949.78
2023-04-29T04:32:36.221Z,100954.94
2023-04-29T04:33:41.699Z,100964.53
2023-04-29T04:34:44.522Z,100967.81
2023-04-29T04:35:48.565Z,100966.28
2023-04-29T04:36:51.754Z,100965.09
2023-04-29T04:37:55.456Z,100962.16
2023-04-29T04:38:58.381Z,100963.38
2023-04-29T04:40:02.495Z,100965.22
2023-04-29T04:41:07.659Z,100958.31
2023-04-29T04:42:11.552Z,100959.66
2023-04-29T04:43:14.175Z,100951.41
2023-04-29T04:44:18.467Z,100946.84
2023-04-29T04:45:21.783Z,100957.47
2023-04-29T04:46:25.558Z,100954.94
2023-04-29T04:47:28.203Z,100955.28
2023-04-29T04:48:31.850Z,100954.69
2023-04-29T04:49:36.367Z,100959.78
2023-04-29T04:50:40.372Z,100953.50
2023-04-29T04:51:45.396Z,100961.44
2023-04-29T04:52:49.268Z,100962.97
2023-04-29T04:53:51.973Z,100958.44
2023-04-29T04:54:55.825Z,100961.13
2023-04-29T04:56:01.946Z,100954.34
2023-04-29T04:57:06.745Z,100952.88
2023-04-29T04:58:09.618Z,100947.66
2023-04-29T04:59:13.372Z,100954.28
2023-04-29T05:00:16.647Z,100955.69
2023-04-29T05:01:20.335Z,100954.06
2023-04-29T05:02:23.313Z,100953.50
2023-04-29T05:03:27.590Z,100959.81
2023-04-29T05:04:31.841Z,100961.63
2023-04-29T05:05:36.681Z,100970.03
2023-04-29T05:06:40.980Z,100965.41
2023-04-29T05:07:44.058Z,100963.06
2023-04-29T05:08:47.733Z,100966.78
2023-04-29T05:09:50.617Z,100971.19
2023-04-29T05:10:55.432Z,100964.78
2023-04-29T05:11:59.525Z,100979.06
2023-04-29T05:13:03.080Z,100979.34
2023-04-29T05:14:05.690Z,100982.81
2023-04-29T05:15:10.398Z,100974.50
2023-04-29T05:16:13.631Z,100975.69
2023-04-29T05:17:17.713Z,100976.63
2023-04-29T05:18:21.033Z,100969.91
2023-04-29T05:19:25.724Z,100969.53
2023-04-29T05:20:28.888Z,100967.25
2023-04-29T05:21:35.143Z,100975.38
2023-04-29T05:22:38.185Z,100972.56
2023-04-29T05:23:43.734Z,100965.25
2023-04-29T05:24:48.590Z,100974.63
2023-04-29T05:25:52.462Z,100968.06
2023-04-29T05:26:55.526Z,100970.00
2023-04-29T05:27:59.172Z,100979.25
2023-04-29T05:29:01.749Z,100970.09
2023-04-29T05:30:06.449Z,100975.28
2023-04-29T05:31:09.068Z,100969.75
2023-04-29T05:32:13.784Z,100975.97
2023-04-29T05:33:16.642Z,100970.66
2023-04-29T05:34:21.137Z,100975.69
2023-04-29T05:35:26.051Z,100973.19
2023-04-29T05:36:30.343Z,100980.25
2023-04-29T05:37:34.818Z,100963.81
2023-04-29T05:38:38.921Z,100975.94
2023-04-29T05:39:42.845Z,100969.28
2023-04-29T05:40:46.663Z,100969.03
2023-04-29T05:41:49.886Z,100966.41
2023-04-29T05:42:53.891Z,100973.53
2023-04-29T05:43:56.662Z,100968.09
2023-04-29T05:45:00.616Z,100966.81
2023-04-29T05:46:03.597Z,100970.03
2023-04-29T05:47:07.330Z,100969.75
2023-04-29T05:48:09.971Z,100967.19
2023-04-29T05:49:14.461Z,100966.50
2023-04-29T05:50:17.194Z,100966.50
2023-04-29T05:51:20.972Z,100963.63
2023-04-29T05:52:23.429Z,100969.59
2023-04-29T05:53:30.691Z,100974.97
2023-04-29T05:54:34.314Z,100980.25
2023-04-29T05:55:38.114Z,100978.78
2023-04-29T05:56:40.997Z,100987.72
2023-04-29T05:57:44.780Z,100975.34
2023-04-29T05:58:47.797Z,100991.78
2023-04-29T05:59:51.880Z,100987.06
2023-04-29T06:00:55.242Z,100986.72
2023-04-29T06:01:59.336Z,100983.31
2023-04-29T06:03:04.035Z,100985.91
2023-04-29T06:04:08.633Z,100985.09
2023-04-29T06:05:12.159Z,100986.16
2023-04-29T06:06:16.674Z,100988.34
2023-04-29T06:07:20.373Z,100993.19
2023-04-29T06:08:24.463Z,100991.84
2023-04-29T06:09:28.843Z,100989.63
2023-04-29T06:10:32.576Z,100987.59
2023-04-29T06:11:35.458Z,100985.88
2023-04-29T06:12:39.450Z,100984.25
2023-04-29T06:13:42.127Z,100987.09
2023-04-29T06:14:46.325Z,100989.53
2023-04-29T06:15:49.559Z,100989.41
2023-04-29T06:16:53.977Z,100995.72
2023-04-29T06:17:56.681Z,100988.56
2023-04-29T06:19:00.696Z,100980.53
2023-04-29T06:20:03.434Z,100986.22
2023-04-29T06:21:07.577Z,100984.88
2023-04-29T06:22:10.440Z,100984.66
2023-04-29T06:23:13.989Z,100989.38
2023-04-29T06:24:16.668Z,100992.34
2023-04-29T06:25:21.917Z,100995.91
2023-04-29T06:26:25.458Z,100987.72
2023-04-29T06:27:29.988Z,100995.00
2023-04-29T06:28:32.661Z,100996.94
2023-04-29T06:29:36.684Z,101003.09
2023-04-29T06:30:39.274Z,101008.47
2023-04-29T06:31:43.251Z,101011.81
2023-04-29T06:32:46.269Z,101020.56
2023-04-29T06:33:49.896Z,101011.13
2023-04-29T06:34:53.401Z,101017.44
2023-04-29T06:35:57.326Z,101018.00
2023-04-29T06:36:59.927Z,101022.38
2023-04-29T06:38:04.026Z,101016.09
2023-04-29T06:39:07.299Z,101020.44
2023-04-29T06:40:12.625Z,101024.44
2023-04-29T06:41:17.056Z,101029.13
2023-04-29T06:42:21.444Z,101028.03
2023-04-29T06:43:24.534Z,101020.31
2023-04-29T06:44:28.328Z,101023.50
2023-04-29T06:45:31.409Z,101016.72
2023-04-29T06:46:35.886Z,101011.63
2023-04-29T06:47:39.014Z,101017.72
2023-04-29T06:48:43.341Z,101016.13
2023-04-29T06:49:46.104Z,101002.94
2023-04-29T06:50:53.588Z,101008.19
2023-04-29T06:51:56.418Z,101006.09
2023-04-29T06:53:01.034Z,101010.25
2023-04-29T06:54:03.849Z,101006.75
2023-04-29T06:55:08.708Z,101017.06
2023-04-29T06:56:11.266Z,101016.72
2023-04-29T06:57:16.445Z,101018.16
2023-04-29T06:58:20.328Z,101017.69
2023-04-29T06:59:24.317Z,101022.84
2023-04-29T07:00:27.451Z,101030.63
2023-04-29T07:01:31.429Z,101032.75
2023-04-29T07:02:34.580Z,101032.53
2023-04-29T07:03:38.665Z,101032.16
2023-04-29T07:04:41.805Z,101032.94
2023-04-29T07:05:46.702Z,101039.53
2023-04-29T07:06:49.590Z,101037.47
2023-04-29T07:07:53.683Z,101034.13
2023-04-29T07:08:57.107Z,101029.19
2023-04-29T07:10:01.138Z,101036.53
2023-04-29T07:11:04.551Z,101027.41
2023-04-29T07:12:08.306Z,101027.56
2023-04-29T07:13:12.492Z,101037.13
2023-04-29T07:14:16.482Z,101034.53
2023-04-29T07:15:19.308Z,101035.66
2023-04-29T07:16:26.684Z,101034.09
2023-04-29T07:17:31.051Z,101039.25
2023-04-29T07:18:34.783Z,101038.56
2023-04-29T07:19:38.730Z,101039.91
2023-04-29T07:20:41.609Z,101034.63
2023-04-29T07:21:45.402Z,101030.63
2023-04-29T07:22:48.184Z,101030.75
2023-04-29T07:23:52.177Z,101029.88
2023-04-29T07:24:55.412Z,101029.97
2023-04-29T07:25:59.457Z,101028.66
2023-04-29T07:27:02.235Z,101033.31
2023-04-29T07:28:06.099Z,101028.44
2023-04-29T07:29:11.717Z,101028.84
2023-04-29T07:30:14.750Z,101032.13
2023-04-29T07:31:19.231Z,101028.31
2023-04-29T07:32:22.928Z,101024.53
2023-04-29T07:33:26.751Z,101028.09
2023-04-29T07:34:29.612Z,101037.78
2023-04-29T07:35:33.428Z,101032.63
2023-04-29T07:36:37.626Z,101028.09
2023-04-29T07:37:43.822Z,101027.22
2023-04-29T07:38:47.942Z,101035.19
2023-04-29T07:39:50.698Z,101025.19
2023-04-29T07:40:54.352Z,101019.16
2023-04-29T07:41:57.633Z,101028.59
2023-04-29T07:43:05.215Z,101027.53
2023-04-29T07:44:09.408Z,101025.31
2023-04-29T07:45:14.139Z,101021.34
2023-04-29T07:46:18.558Z,101017.19
2023-04-29T07:47:22.417Z,101017.03
2023-04-29T07:48:24.909Z,101020.31
2023-04-29T07:49:28.681Z,101024.25
2023-04-29T07:50:31.064Z,101019.56
2023-04-29T07:51:34.737Z,101014.53
2023-04-29T07:52:37.435Z,101020.16
2023-04-29T07:53:41.072Z,101011.72
2023-04-29T07:54:44.114Z,101013.31
2023-04-29T07:55:48.226Z,101014.06
2023-04-29T07:56:51.077Z,101014.81
2023-04-29T07:57:54.922Z,101014.97
2023-04-29T07:58:57.492Z,101014.97
2023-04-29T08:14:01.351Z,101016.34
2023-04-29T08:15:04.974Z,101025.97
2023-04-29T08:16:09.856Z,101017.56
2023-04-29T08:17:15.316Z,101015.88
2023-04-29T08:18:18.149Z,101015.94
2023-04-29T08:19:21.729Z,101014.09
2023-04-29T08:20:24.250Z,101013.78
2023-04-29T08:21:28.978Z,101009.88
2023-04-29T08:22:34.563Z,101005.13
2023-04-29T08:23:38.518Z,101006.94
2023-04-29T08:24:42.921Z,101006.84
2023-04-29T08:25:46.573Z,101008.13
2023-04-29T08:26:49.327Z,101011.38
2023-04-29T08:27:52.912Z,101003.34
2023-04-29T08:28:56.458Z,101004.41
2023-04-29T08:30:01.024Z,101006.22
2023-04-29T08:31:08.036Z,101010.38
2023-04-29T08:32:11.067Z,101004.16
2023-04-29T08:33:15.065Z,101006.72
2023-04-29T08:34:18.410Z,101005.78
2023-04-29T08:35:21.326Z,101003.28
2023-04-29T08:36:25.482Z,100998.19
2023-04-29T08:37:28.158Z,101005.84
2023-04-29T08:38:32.368Z,100999.00
2023-04-29T08:39:36.378Z,101008.84
2023-04-29T08:40:44.168Z,101000.28
2023-04-29T08:41:54.142Z,101000.78
2023-04-29T08:42:59.273Z,101003.78
2023-04-29T08:44:03.076Z,101003.78
2023-04-29T08:45:08.045Z,101003.44
2023-04-29T08:46:12.240Z,101007.84
2023-04-29T08:47:16.867Z,101013.09
2023-04-29T08:48:19.739Z,101021.44
2023-04-29T08:49:23.468Z,101021.81
2023-04-29T08:50:29.065Z,101011.69
2023-04-29T08:51:34.965Z,101024.59
2023-04-29T08:52:38.028Z,101021.25
2023-04-29T08:53:41.961Z,101024.34
2023-04-29T08:54:45.474Z,101017.84
2023-04-29T08:55:50.033Z,101023.56
2023-04-29T08:56:54.021Z,101026.81
2023-04-29T08:57:59.369Z,101030.81
2023-04-29T08:59:02.897Z,101028.09
2023-04-29T09:00:10.592Z,101034.09
2023-04-29T09:01:15.283Z,101028.72
2023-04-29T09:02:22.430Z,101026.56
2023-04-29T09:03:31.689Z,101018.38
2023-04-29T09:04:42.540Z,101025.16
2023-04-29T09:05:50.850Z,101023.38
2023-04-29T09:06:57.087Z,101021.03
2023-04-29T09:08:03.484Z,101025.06
2023-04-29T09:09:06.919Z,101025.22
2023-04-29T09:10:12.092Z,101031.19
2023-04-29T09:11:16.080Z,101022.97
2023-04-29T09:12:19.489Z,101031.47
2023-04-29T09:13:26.161Z,101031.00
2023-04-29T09:14:33.628Z,101024.25
2023-04-29T09:15:42.366Z,101029.75
2023-04-29T09:16:47.410Z,101020.03
2023-04-29T09:17:51.507Z,101027.25
2023-04-29T09:18:55.419Z,101033.88
2023-04-29T09:19:59.017Z,101036.34
2023-04-29T09:21:16.912Z,101037.31
2023-04-29T09:22:21.678Z,101046.28
2023-04-29T09:23:37.737Z,101045.78
2023-04-29T09:24:41.794Z,101047.28
2023-04-29T09:25:59.662Z,101048.44
2023-04-29T09:27:04.778Z,101055.50
2023-04-29T09:28:16.474Z,101065.72
2023-04-29T09:29:22.701Z,101064.72
2023-04-29T09:30:27.074Z,101071.78
2023-04-29T09:31:32.615Z,101070.84
2023-04-29T09:32:38.454Z,101084.47
2023-04-29T09:33:54.543Z,101077.22
2023-04-29T09:34:59.063Z,101093.97
2023-04-29T09:36:01.668Z,101086.75
2023-04-29T09:37:05.520Z,101084.28
2023-04-29T09:38:13.194Z,101092.25
2023-04-29T09:39:17.982Z,101086.38
2023-04-29T09:40:30.898Z,101090.38
2023-04-29T09:41:34.928Z,101094.66
2023-04-29T09:42:44.720Z,101100.28
2023-04-29T09:44:04.635Z,101098.44
2023-04-29T09:45:12.913Z,101095.22
2023-04-29T09:46:16.844Z,101094.78
2023-04-29T09:47:32.094Z,101095.25
2023-04-29T09:48:35.794Z,101098.22
2023-04-29T09:49:41.472Z,101090.59
2023-04-29T09:50:47.199Z,101081.56
2023-04-29T09:51:53.692Z,101089.28
2023-04-29T09:52:57.894Z,101088.34
2023-04-29T09:54:03.656Z,101084.53
2023-04-29T09:55:08.150Z,101087.25
2023-04-29T09:56:11.488Z,101098.00
2023-04-29T09:57:15.895Z,101090.06
2023-04-29T09:58:28.855Z,101089.66
2023-04-29T09:59:32.980Z,101087.69
2023-04-29T10:00:36.528Z,101091.28
2023-04-29T10:01:40.273Z,101089.22
2023-04-29T10:02:47.422Z,101089.41
2023-04-29T10:03:54.075Z,101088.22
2023-04-29T10:04:58.107Z,101088.50
2023-04-29T10:06:03.370Z,101088.94
2023-04-29T10:07:06.177Z,101085.94
2023-04-29T10:08:11.211Z,101092.13
2023-04-29T10:09:18.280Z,101089.38
2023-04-29T10:10:24.738Z,101091.28
2023-04-29T10:11:28.022Z,101100.25
2023-04-29T10:12:32.526Z,101100.09
2023-04-29T10:13:38.796Z,101096.44
2023-04-29T10:14:49.341Z,101098.03
2023-04-29T10:16:02.562Z,101093.03
2023-04-29T10:17:24.032Z,101103.34
2023-04-29T10:18:37.423Z,101103.59
2023-04-29T10:19:48.827Z,101096.50
2023-04-29T10:20:53.952Z,101100.41
2023-04-29T10:22:01.233Z,101094.31
2023-04-29T10:23:05.830Z,101094.41
2023-04-29T10:24:11.512Z,101104.94
2023-04-29T10:25:18.121Z,101092.69
2023-04-29T10:26:22.583Z,101093.19
2023-04-29T10:27:26.950Z,101092.41
2023-04-29T10:28:32.795Z,101090.69
2023-04-29T10:29:39.122Z,101096.97
2023-04-29T10:30:45.304Z,101100.72
2023-04-29T10:31:51.532Z,101110.00
2023-04-29T10:32:57.867Z,101106.69
2023-04-29T10:34:03.598Z,101114.94
2023-04-29T10:35:10.957Z,101114.22
2023-04-29T10:36:16.626Z,101109.16
2023-04-29T10:37:19.792Z,101109.91
2023-04-29T10:38:28.680Z,101103.00
2023-04-29T10:39:42.136Z,101102.63
2023-04-29T10:40:46.886Z,101093.16
2023-04-29T10:41:52.658Z,101093.78
2023-04-29T10:42:57.118Z,101092.13
2023-04-29T10:44:03.623Z,101083.00
2023-04-29T10:45:22.607Z,101082.09
2023-04-29T10:46:27.517Z,101092.44
2023-04-29T10:47:30.522Z,101092.03
2023-04-29T10:48:39.334Z,101091.28
2023-04-29T10:50:04.563Z,101091.00
2023-04-29T10:51:10.590Z,101091.00
2023-04-29T10:52:19.189Z,101099.00
2023-04-29T10:53:22.278Z,101104.19
2023-04-29T10:54:26.266Z,101104.31
2023-04-29T10:55:29.604Z,101098.38
2023-04-29T10:56:49.490Z,101092.81
2023-04-29T10:57:53.928Z,101086.53
2023-04-29T10:58:57.895Z,101097.03
2023-04-29T11:00:00.365Z,101089.50
2023-04-29T11:01:05.172Z,101090.81
2023-04-29T11:02:11.435Z,101088.94
2023-04-29T11:03:48.566Z,101089.16
2023-04-29T11:05:31.117Z,101087.00
2023-04-29T11:06:48.410Z,101085.72
2023-04-29T11:08:10.166Z,101089.03
2023-04-29T11:09:16.899Z,101092.59
2023-04-29T11:10:20.739Z,101092.00
2023-04-29T11:11:28.192Z,101087.81
2023-04-29T11:12:34.676Z,101084.63
2023-04-29T11:13:39.979Z,101093.31
2023-04-29T11:14:44.845Z,101082.13
2023-04-29T11:15:47.360Z,101074.97
2023-04-29T11:16:53.940Z,101073.66
2023-04-29T11:18:01.891Z,101074.69
2023-04-29T11:19:08.958Z,101074.31
2023-04-29T11:20:15.525Z,101063.69
2023-04-29T11:21:19.640Z,101060.44
2023-04-29T11:22:27.799Z,101062.47
2023-04-29T11:23:30.514Z,101068.28
2023-04-29T11:24:37.354Z,101059.16
2023-04-29T11:25:41.227Z,101060.28
2023-04-29T11:26:44.631Z,101065.22
2023-04-29T11:27:49.378Z,101055.16
2023-04-29T11:28:53.235Z,101063.59
2023-04-29T11:29:59.541Z,101060.94
2023-04-29T11:31:03.906Z,101055.22
2023-04-29T11:32:10.719Z,101053.66
2023-04-29T11:33:15.496Z,101048.53
2023-04-29T11:34:17.965Z,101048.91
2023-04-29T11:35:21.800Z,101054.78
2023-04-29T11:36:26.291Z,101049.88
2023-04-29T11:37:30.598Z,101044.63
2023-04-29T11:38:33.617Z,101048.63
2023-04-29T11:39:37.616Z,101057.13
2023-04-29T11:40:42.757Z,101056.34
2023-04-29T11:41:46.340Z,101059.00
2023-04-29T11:42:50.969Z,101055.00
2023-04-29T11:43:56.978Z,101058.56
2023-04-29T11:45:00.791Z,101053.59
2023-04-29T11:46:03.429Z,101061.78
2023-04-29T11:47:07.719Z,101052.19
2023-04-29T11:48:12.228Z,101046.84
2023-04-29T11:49:14.951Z,101039.97
2023-04-29T11:50:20.940Z,101030.91
2023-04-29T11:51:28.142Z,101040.91
2023-04-29T11:52:32.515Z,101042.16
2023-04-29T11:53:35.830Z,101033.94
2023-04-29T11:54:39.727Z,101034.84
2023-04-29T11:55:43.844Z,101037.28
2023-04-29T11:56:47.644Z,101038.56
2023-04-29T11:57:51.252Z,101043.16
2023-04-29T11:59:01.868Z,101031.75
2023-04-29T12:00:07.987Z,101034.34
2023-04-29T12:01:12.801Z,101029.22
2023-04-29T12:02:15.744Z,101030.16
2023-04-29T12:03:22.056Z,101037.94
2023-04-29T12:04:26.389Z,101044.03
2023-04-29T12:05:31.165Z,101040.63
2023-04-29T12:06:35.461Z,101038.78
2023-04-29T12:07:39.130Z,101034.63
2023-04-29T12:08:42.591Z,101031.72
2023-04-29T12:09:48.432Z,101033.41
2023-04-29T12:10:53.070Z,101033.13
2023-04-29T12:11:57.650Z,101028.44
2023-04-29T12:13:01.257Z,101023.09
2023-04-29T12:14:07.154Z,101023.50
2023-04-29T12:15:11.398Z,101025.69
2023-04-29T12:16:15.224Z,101015.91
2023-04-29T12:17:19.757Z,101018.66
2023-04-29T12:18:23.639Z,101020.16
2023-04-29T12:19:27.358Z,101017.22
2023-04-29T12:20:30.118Z,101012.31
2023-04-29T12:21:37.051Z,101019.97
2023-04-29T12:22:39.910Z,101014.66
2023-04-29T12:23:45.237Z,101017.03
2023-04-29T12:24:47.840Z,101015.56
2023-04-29T12:25:53.466Z,101024.50
2023-04-29T12:26:59.830Z,101023.38
2023-04-29T12:28:08.452Z,101014.06
2023-04-29T12:29:12.576Z,101014.44
2023-04-29T12:30:15.526Z,101013.28
2023-04-29T12:31:19.225Z,101012.78
2023-04-29T12:32:26.023Z,101008.59
2023-04-29T12:33:31.714Z,101015.00
2023-04-29T12:34:34.828Z,101002.56
2023-04-29T12:35:41.315Z,101015.06